createdAt,value
2024-01-16T00:02:02.375Z,100247.22
2024-01-16T00:04:31.005Z,100234.63
2024-01-16T00:06:57.774Z,100245.94
2024-01-16T00:09:24.749Z,100239.53
2024-01-16T00:11:51.501Z,100239.44
2024-01-16T00:14:18.566Z,100247.19
2024-01-16T00:16:46.279Z,100247.94
2024-01-16T00:19:13.465Z,100241.66
2024-01-16T00:21:44.144Z,100241.56
2024-01-16T00:24:10.796Z,100242.50
2024-01-16T00:26:37.617Z,100241.75
2024-01-16T00:29:04.414Z,100250.09
2024-01-16T00:31:31.084Z,100240.59
2024-01-16T00:33:57.750Z,100246.38
2024-01-16T00:36:24.507Z,100246.69
2024-01-16T00:38:51.220Z,100244.47
2024-01-16T00:41:17.987Z,100241.28
2024-01-16T00:43:45.153Z,100242.66
2024-01-16T00:46:12.312Z,100243.81
2024-01-16T00:48:39.157Z,100244.78
2024-01-16T00:51:06.082Z,100254.69
2024-01-16T00:53:32.750Z,100248.94
2024-01-16T00:55:59.501Z,100254.44
2024-01-16T00:58:26.342Z,100256.28
2024-01-16T01:00:53.014Z,100257.34
2024-01-16T01:03:19.574Z,100258.38
2024-01-16T01:05:46.153Z,100267.50
2024-01-16T01:08:12.869Z,100267.50
2024-01-16T01:10:39.533Z,100264.00
2024-01-16T01:13:06.091Z,100268.38
2024-01-16T01:15:32.665Z,100259.53
2024-01-16T01:17:59.600Z,100263.91
2024-01-16T01:20:26.924Z,100262.31
2024-01-16T01:22:53.601Z,100270.50
2024-01-16T01:25:20.272Z,100280.50
2024-01-16T01:27:46.854Z,100286.66
2024-01-16T01:30:13.975Z,100278.78
2024-01-16T01:32:40.947Z,100287.72
2024-01-16T01:35:08.377Z,100290.41
2024-01-16T01:37:35.072Z,100296.88
2024-01-16T01:40:01.680Z,100290.91
2024-01-16T01:42:28.281Z,100282.16
2024-01-16T01:44:54.930Z,100292.06
2024-01-16T01:47:21.695Z,100294.91
2024-01-16T01:49:48.918Z,100293.44
2024-01-16T01:52:15.756Z,100295.34
2024-01-16T01:54:42.425Z,100296.50
2024-01-16T01:57:09.749Z,100302.84
2024-01-16T01:59:36.663Z,100303.06
2024-01-16T02:02:04.289Z,100305.81
2024-01-16T02:04:32.479Z,100311.97
2024-01-16T02:06:59.363Z,100309.44
2024-01-16T02:09:25.954Z,100311.34
2024-01-16T02:11:52.712Z,100310.66
2024-01-16T02:14:19.500Z,100309.81
2024-01-16T02:16:46.612Z,100310.13
2024-01-16T02:19:13.331Z,100298.75
2024-01-16T02:21:43.308Z,100306.81
2024-01-16T02:24:12.199Z,100312.13
2024-01-16T02:26:39.009Z,100306.81
2024-01-16T02:29:05.898Z,100311.28
2024-01-16T02:31:33.469Z,100306.81
2024-01-16T02:34:01.013Z,100299.16
2024-01-16T02:36:28.756Z,100303.50
2024-01-16T02:38:57.773Z,100301.81
2024-01-16T02:41:24.493Z,100313.38
2024-01-16T02:43:51.062Z,100306.16
2024-01-16T02:46:18.216Z,100306.91
2024-01-16T02:48:45.017Z,100308.81
2024-01-16T02:51:11.913Z,100310.41
2024-01-16T02:53:38.554Z,100299.91
2024-01-16T02:56:05.448Z,100301.81
2024-01-16T02:58:32.167Z,100301.69
2024-01-16T03:00:58.773Z,100302.44
2024-01-16T03:03:26.030Z,100310.31
2024-01-16T03:05:52.798Z,100307.75
2024-01-16T03:08:19.449Z,100309.47
2024-01-16T03:10:46.297Z,100308.72
2024-01-16T03:13:12.970Z,100312.22
2024-01-16T03:15:39.574Z,100316.59
2024-01-16T03:18:06.384Z,100320.19
2024-01-16T03:20:33.820Z,100336.13
2024-01-16T03:23:00.511Z,100338.03
2024-01-16T03:25:27.420Z,100330.28
2024-01-16T03:27:53.993Z,100340.16
2024-01-16T03:30:20.767Z,100340.31
2024-01-16T03:32:47.510Z,100346.41
2024-01-16T03:35:14.248Z,100350.56
2024-01-16T03:37:40.875Z,100346.97
2024-01-16T03:40:08.616Z,100353.03
2024-01-16T03:42:35.254Z,100348.47
2024-01-16T03:45:01.814Z,100354.94
2024-01-16T03:47:28.554Z,100348.00
2024-01-16T03:49:55.202Z,100346.31
2024-01-16T03:52:21.759Z,100353.53
2024-01-16T03:54:48.346Z,100352.69
2024-01-16T03:57:14.897Z,100344.88
2024-01-16T03:59:41.641Z,100341.28
2024-01-16T04:02:08.313Z,100352.84
2024-01-16T04:04:35.713Z,100350.31
2024-01-16T04:07:04.165Z,100353.06
2024-01-16T04:09:30.883Z,100361.31
2024-01-16T04:12:00.593Z,100352.78
2024-01-16T04:14:27.308Z,100347.69
2024-01-16T04:16:53.935Z,100358.31
2024-01-16T04:19:20.864Z,100358.31
2024-01-16T04:21:47.690Z,100359.91
2024-01-16T04:24:14.298Z,100359.81
2024-01-16T04:26:41.171Z,100372.13
2024-01-16T04:29:07.847Z,100360.56
2024-01-16T04:31:41.002Z,100358.75
2024-01-16T04:34:07.711Z,100363.22
2024-01-16T04:36:34.347Z,100363.31
2024-01-16T04:39:01.419Z,100360.84
2024-01-16T04:41:28.276Z,100357.41
2024-01-16T04:43:54.982Z,100364.63
2024-01-16T04:46:21.674Z,100362.94
2024-01-16T04:48:48.438Z,100368.47
2024-01-16T04:51:15.083Z,100372.25
2024-01-16T04:53:41.992Z,100371.38
2024-01-16T04:56:08.724Z,100375.84
2024-01-16T04:58:35.410Z,100384.66
2024-01-16T05:01:04.510Z,100382.13
2024-01-16T05:03:31.151Z,100382.97
2024-01-16T05:05:58.250Z,100386.38
2024-01-16T05:13:48.194Z,100402.38
2024-01-16T05:16:14.848Z,100397.09
2024-01-16T05:18:44.687Z,100384.56
2024-01-16T05:21:11.346Z,100391.59
2024-01-16T05:23:38.484Z,100388.19
2024-01-16T05:26:05.345Z,100394.34
2024-01-16T05:28:31.975Z,100394.34
2024-01-16T05:30:58.716Z,100400.69
2024-01-16T05:33:25.457Z,100407.91
2024-01-16T05:35:52.329Z,100398.22
2024-01-16T05:38:19.224Z,100393.00
2024-01-16T05:40:48.069Z,100393.88
2024-01-16T05:43:15.710Z,100385.78
2024-01-16T05:45:42.536Z,100398.31
2024-01-16T05:48:32.296Z,100405.34
2024-01-16T05:51:32.997Z,100403.63
2024-01-16T05:53:59.527Z,100407.31
2024-01-16T05:56:26.210Z,100406.47
2024-01-16T05:58:53.440Z,100403.72
2024-01-16T06:01:20.177Z,100404.50
2024-01-16T06:03:49.873Z,100409.81
2024-01-16T06:06:17.452Z,100424.84
2024-01-16T06:08:44.336Z,100425.13
2024-01-16T06:11:14.209Z,100417.63
2024-01-16T06:13:41.351Z,100419.13
2024-01-16T06:16:11.430Z,100424.97
2024-01-16T06:18:38.197Z,100417.28
2024-01-16T06:21:05.154Z,100426.22
2024-01-16T06:23:31.877Z,100431.69
2024-01-16T06:25:58.584Z,100432.81
2024-01-16T06:28:25.185Z,100431.13
2024-01-16T06:30:51.918Z,100440.00
2024-01-16T06:33:18.671Z,100443.41
2024-01-16T06:35:45.328Z,100447.81
2024-01-16T06:38:11.993Z,100450.34
2024-01-16T06:40:38.837Z,100450.84
2024-01-16T06:43:06.755Z,100460.91
2024-01-16T06:45:33.376Z,100466.91
2024-01-16T06:48:00.254Z,100470.97
2024-01-16T06:50:27.006Z,100468.25
2024-01-16T06:52:53.656Z,100467.38
2024-01-16T06:55:20.257Z,100461.81
2024-01-16T06:57:47.828Z,100463.28
2024-01-16T07:00:15.768Z,100466.50
2024-01-16T07:02:44.565Z,100475.97
2024-01-16T07:05:12.714Z,100484.72
2024-01-16T07:07:39.522Z,100493.44
2024-01-16T07:10:09.334Z,100501.31
2024-01-16T07:12:36.030Z,100501.25
2024-01-16T07:15:02.677Z,100501.81
2024-01-16T07:17:30.265Z,100490.97
2024-01-16T07:19:57.118Z,100500.59
2024-01-16T07:22:23.779Z,100511.09
2024-01-16T07:24:50.409Z,100514.50
2024-01-16T07:27:17.072Z,100509.88
2024-01-16T07:29:43.689Z,100516.81
2024-01-16T07:32:12.173Z,100520.50
2024-01-16T07:34:38.824Z,100521.72
2024-01-16T07:37:05.379Z,100529.13
2024-01-16T07:39:31.961Z,100527.41
2024-01-16T07:41:58.564Z,100530.81
2024-01-16T07:44:25.227Z,100535.13
2024-01-16T07:46:51.812Z,100553.44
2024-01-16T07:49:18.514Z,100556.56
2024-01-16T07:51:45.090Z,100562.34
2024-01-16T07:54:11.780Z,100557.53
2024-01-16T07:56:39.082Z,100558.78
2024-01-16T07:59:05.904Z,100561.34
2024-01-16T08:01:33.604Z,100560.28
2024-01-16T08:04:00.505Z,100577.19
2024-01-16T08:06:27.659Z,100583.63
2024-01-16T08:08:54.483Z,100592.19
2024-01-16T08:11:21.367Z,100601.56
2024-01-16T08:13:47.996Z,100609.06
2024-01-16T08:16:14.634Z,100612.31
2024-01-16T08:18:41.480Z,100604.88
2024-01-16T08:21:08.774Z,100613.22
2024-01-16T08:23:35.673Z,100609.97
2024-01-16T08:26:05.201Z,100616.50
2024-01-16T08:28:31.758Z,100612.50
2024-01-16T08:30:59.969Z,100617.50
2024-01-16T08:33:33.739Z,100619.78
2024-01-16T08:36:05.496Z,100626.81
2024-01-16T08:38:32.351Z,100623.94
2024-01-16T08:40:58.963Z,100628.13
2024-01-16T08:43:25.581Z,100627.91
2024-01-16T08:45:52.141Z,100627.72
2024-01-16T08:48:18.939Z,100626.56
2024-01-16T08:50:45.730Z,100632.25
2024-01-16T08:53:12.372Z,100624.88
2024-01-16T08:55:38.946Z,100628.19
2024-01-16T08:58:05.627Z,100625.22
2024-01-16T09:00:32.358Z,100624.94
2024-01-16T09:03:00.465Z,100632.38
2024-01-16T09:05:28.303Z,100631.16
2024-01-16T09:07:54.969Z,100629.91
2024-01-16T09:10:21.643Z,100633.19
2024-01-16T09:12:49.889Z,100634.50
2024-01-16T09:15:17.976Z,100635.44
2024-01-16T09:17:47.254Z,100627.03
2024-01-16T09:20:18.421Z,100632.16
2024-01-16T09:22:45.005Z,100628.63
2024-01-16T09:25:13.668Z,100640.25
2024-01-16T09:27:40.360Z,100644.00
2024-01-16T09:30:08.623Z,100653.59
2024-01-16T09:32:38.498Z,100647.75
2024-01-16T09:35:07.900Z,100648.16
2024-01-16T09:37:34.553Z,100647.50
2024-01-16T09:40:01.310Z,100655.84
2024-01-16T09:42:28.647Z,100655.41
2024-01-16T09:44:56.524Z,100658.38
2024-01-16T09:47:23.591Z,100654.09
2024-01-16T09:49:50.342Z,100656.66
2024-01-16T09:52:20.193Z,100650.44
2024-01-16T09:54:46.858Z,100662.25
2024-01-16T09:57:15.333Z,100663.59
2024-01-16T09:59:42.242Z,100666.81
2024-01-16T10:02:11.836Z,100674.50
2024-01-16T10:04:38.629Z,100666.97
2024-01-16T10:07:05.531Z,100669.94
2024-01-16T10:09:32.310Z,100670.38
2024-01-16T10:12:01.152Z,100680.38
2024-01-16T10:14:28.009Z,100681.38
2024-01-16T10:17:07.245Z,100683.28
2024-01-16T10:19:43.341Z,100684.19
2024-01-16T10:22:24.461Z,100678.88
2024-01-16T10:25:13.590Z,100689.84
2024-01-16T10:27:41.292Z,100682.69
2024-01-16T10:30:08.657Z,100686.25
2024-01-16T10:32:43.123Z,100685.31
2024-01-16T10:35:15.008Z,100683.84
2024-01-16T10:37:46.829Z,100678.47
2024-01-16T10:40:32.159Z,100677.63
2024-01-16T10:43:06.669Z,100678.63
2024-01-16T10:45:34.259Z,100678.47
2024-01-16T10:48:08.972Z,100680.47
2024-01-16T10:50:38.462Z,100684.13
2024-01-16T10:53:06.201Z,100679.72
2024-01-16T10:55:39.764Z,100685.09
2024-01-16T10:58:06.525Z,100685.06
2024-01-16T11:00:34.554Z,100687.50
2024-01-16T11:03:10.552Z,100675.06
2024-01-16T11:05:38.637Z,100676.03
2024-01-16T11:08:07.120Z,100670.91
2024-01-16T11:10:35.222Z,100669.28
2024-01-16T11:13:03.219Z,100673.16
2024-01-16T11:15:30.015Z,100658.38
2024-01-16T11:17:57.718Z,100658.47
2024-01-16T11:20:38.780Z,100663.06
2024-01-16T11:23:13.097Z,100657.91
2024-01-16T11:25:40.692Z,100657.50
2024-01-16T11:28:14.837Z,100650.78
2024-01-16T11:30:42.243Z,100646.00
2024-01-16T11:33:34.889Z,100645.72
2024-01-16T11:36:02.256Z,100654.38
2024-01-16T11:38:30.592Z,100647.88
2024-01-16T11:40:57.613Z,100638.72
2024-01-16T11:43:33.682Z,100639.31
2024-01-16T11:46:05.370Z,100633.41
2024-01-16T11:48:32.064Z,100618.75
2024-01-16T11:50:58.816Z,100626.41
2024-01-16T11:53:31.685Z,100626.41
2024-01-16T11:56:34.309Z,100623.44
2024-01-16T11:59:29.019Z,100626.72
2024-01-16T12:01:59.361Z,100625.47
2024-01-16T12:04:26.613Z,100621.66
2024-01-16T12:07:00.985Z,100621.22
2024-01-16T12:09:28.832Z,100618.28
2024-01-16T12:12:00.358Z,100616.19
2024-01-16T12:14:27.203Z,100617.75
2024-01-16T12:16:54.061Z,100616.75
2024-01-16T12:19:20.893Z,100618.34
2024-01-16T12:21:47.548Z,100607.59
2024-01-16T12:24:18.414Z,100611.13
2024-01-16T12:26:45.497Z,100618.34
2024-01-16T12:29:12.247Z,100612.38
2024-01-16T12:31:38.896Z,100607.28
2024-01-16T12:34:11.495Z,100604.16
2024-01-16T12:36:39.252Z,100593.81
2024-01-16T12:39:06.670Z,100593.38
2024-01-16T12:41:43.004Z,100600.13
2024-01-16T12:44:15.903Z,100598.25
2024-01-16T12:47:03.901Z,100593.69
2024-01-16T12:49:31.058Z,100603.50
2024-01-16T12:52:21.801Z,100600.91
2024-01-16T12:54:50.297Z,100603.53
2024-01-16T12:57:23.154Z,100589.19
2024-01-16T12:59:51.312Z,100581.66
2024-01-16T13:02:27.471Z,100584.75
2024-01-16T13:05:05.127Z,100577.34
2024-01-16T13:07:34.919Z,100576.78
2024-01-16T13:10:17.370Z,100581.41
2024-01-16T13:12:44.399Z,100572.88
2024-01-16T13:15:18.004Z,100571.44
2024-01-16T13:17:47.033Z,100573.41
2024-01-16T13:20:24.667Z,100579.16
2024-01-16T13:22:53.077Z,100580.28
2024-01-16T13:25:19.799Z,100584.06
2024-01-16T13:27:47.000Z,100585.28
2024-01-16T13:30:19.681Z,100591.97
2024-01-16T13:32:48.900Z,100582.59
2024-01-16T13:35:15.632Z,100582.88
2024-01-16T13:37:42.640Z,100577.75
2024-01-16T13:40:16.502Z,100576.91
2024-01-16T13:42:45.309Z,100572.66
2024-01-16T13:45:14.654Z,100574.13
2024-01-16T13:47:42.229Z,100570.38
2024-01-16T13:50:09.442Z,100571.25
2024-01-16T13:52:36.922Z,100576.53
2024-01-16T13:55:08.094Z,100580.03
2024-01-16T13:57:38.265Z,100578.22
2024-01-16T14:00:06.525Z,100583.47
2024-01-16T14:02:33.311Z,100587.59
2024-01-16T14:05:00.273Z,100589.53
2024-01-16T14:07:27.174Z,100588.81
2024-01-16T14:09:53.826Z,100595.16
2024-01-16T14:12:20.463Z,100591.84
2024-01-16T14:14:48.731Z,100588.44
2024-01-16T14:17:15.486Z,100590.41
2024-01-16T14:19:42.159Z,100590.66
2024-01-16T14:22:08.753Z,100588.19
2024-01-16T14:24:44.536Z,100581.38
2024-01-16T14:27:11.822Z,100576.19
2024-01-16T14:29:41.127Z,100577.03
2024-01-16T14:32:08.092Z,100581.63
2024-01-16T14:34:34.891Z,100584.44
2024-01-16T14:37:01.759Z,100591.09
2024-01-16T14:39:32.075Z,100592.31
2024-01-16T14:42:00.028Z,100592.66
2024-01-16T14:44:26.741Z,100592.66
2024-01-16T14:46:55.412Z,100591.72
2024-01-16T14:49:25.246Z,100595.97
2024-01-16T14:51:52.123Z,100601.19
2024-01-16T14:54:19.324Z,100609.34
2024-01-16T14:56:49.955Z,100597.91
2024-01-16T14:59:17.059Z,100606.16
2024-01-16T15:01:45.288Z,100604.47
2024-01-16T15:04:15.470Z,100608.13
2024-01-16T15:06:42.599Z,100617.19
2024-01-16T15:09:13.330Z,100620.03
2024-01-16T15:11:41.158Z,100634.34
2024-01-16T15:14:08.077Z,100630.81
2024-01-16T15:16:34.956Z,100626.56
2024-01-16T15:19:03.885Z,100626.56
2024-01-16T15:21:30.554Z,100627.63
2024-01-16T15:23:57.790Z,100632.38
2024-01-16T15:26:26.486Z,100644.03
2024-01-16T15:28:53.309Z,100636.25
2024-01-16T15:31:22.420Z,100641.78
2024-01-16T15:33:49.100Z,100639.34
2024-01-16T15:36:15.820Z,100641.19
2024-01-16T15:38:43.668Z,100640.31
2024-01-16T15:41:10.273Z,100633.28
2024-01-16T15:43:38.040Z,100640.56
2024-01-16T15:46:07.366Z,100641.63
2024-01-16T15:48:35.626Z,100648.78
2024-01-16T15:51:02.848Z,100656.06
2024-01-16T15:53:30.004Z,100664.09
2024-01-16T15:55:56.654Z,100667.75
2024-01-16T15:58:23.356Z,100665.28
2024-01-16T16:00:49.989Z,100670.75
2024-01-16T16:03:16.800Z,100675.22
2024-01-16T16:05:43.585Z,100671.81
2024-01-16T16:08:11.551Z,100668.44
2024-01-16T16:10:38.235Z,100671.94
2024-01-16T16:13:05.497Z,100679.97
2024-01-16T16:15:32.856Z,100686.16
2024-01-16T16:17:59.756Z,100676.31
2024-01-16T16:20:27.044Z,100682.75
2024-01-16T16:22:54.601Z,100679.22
2024-01-16T16:25:21.315Z,100683.00
2024-01-16T16:27:48.977Z,100684.03
2024-01-16T16:30:15.824Z,100678.84
2024-01-16T16:32:42.884Z,100686.94
2024-01-16T16:35:10.708Z,100693.47
2024-01-16T16:37:37.390Z,100697.97
2024-01-16T16:40:06.027Z,100692.75
2024-01-16T16:42:33.207Z,100683.13
2024-01-16T16:45:00.477Z,100683.59
2024-01-16T16:47:27.286Z,100684.38
2024-01-16T16:49:53.921Z,100692.19
2024-01-16T16:52:20.842Z,100695.53
2024-01-16T16:54:49.058Z,100692.31
2024-01-16T16:57:18.750Z,100695.22
2024-01-16T16:59:46.499Z,100690.81
2024-01-16T17:02:16.316Z,100703.31
2024-01-16T17:04:43.505Z,100701.59
2024-01-16T17:07:13.696Z,100707.06
2024-01-16T17:09:42.952Z,100715.19
2024-01-16T17:12:09.952Z,100709.00
2024-01-16T17:14:44.297Z,100709.84
2024-01-16T17:17:12.267Z,100721.38
2024-01-16T17:19:39.221Z,100722.25
2024-01-16T17:22:09.247Z,100717.75
2024-01-16T17:24:39.426Z,100725.75
2024-01-16T17:27:09.135Z,100728.44
2024-01-16T17:29:36.736Z,100719.56
2024-01-16T17:32:06.215Z,100727.44
2024-01-16T17:34:32.890Z,100734.59
2024-01-16T17:36:59.584Z,100747.13
2024-01-16T17:39:27.012Z,100737.38
2024-01-16T17:41:53.723Z,100728.63
2024-01-16T17:44:20.672Z,100739.31
2024-01-16T17:46:47.338Z,100734.94
2024-01-16T17:49:17.343Z,100742.72
2024-01-16T17:51:47.986Z,100749.78
2024-01-16T17:54:17.885Z,100757.56
2024-01-16T17:56:50.510Z,100751.28
2024-01-16T17:59:19.575Z,100754.91
2024-01-16T18:01:47.817Z,100759.28
2024-01-16T18:04:19.081Z,100761.81
2024-01-16T18:06:51.892Z,100748.47
2024-01-16T18:09:20.520Z,100755.44
2024-01-16T18:11:54.408Z,100749.88
2024-01-16T18:14:22.165Z,100744.44
2024-01-16T18:16:52.726Z,100741.84
2024-01-16T18:19:20.815Z,100741.84
2024-01-16T18:21:47.505Z,100736.63
2024-01-16T18:24:17.076Z,100734.81
2024-01-16T18:26:51.660Z,100730.44
2024-01-16T18:29:21.779Z,100731.41
2024-01-16T18:31:51.092Z,100735.78
2024-01-16T18:34:21.731Z,100735.78
2024-01-16T18:36:49.927Z,100742.09
2024-01-16T18:39:21.602Z,100737.59
2024-01-16T18:41:49.419Z,100738.53
2024-01-16T18:44:19.186Z,100733.19
2024-01-16T18:46:47.855Z,100726.06
2024-01-16T18:49:14.671Z,100731.41
2024-01-16T18:51:43.868Z,100729.69
2024-01-16T18:54:10.771Z,100741.34
2024-01-16T18:56:41.561Z,100747.63
2024-01-16T18:59:10.570Z,100749.34
2024-01-16T19:01:44.788Z,100747.72
2024-01-16T19:04:23.527Z,100749.66
2024-01-16T19:06:52.541Z,100760.47
2024-01-16T19:09:24.565Z,100747.13
2024-01-16T19:11:54.015Z,100766.75
2024-01-16T19:14:23.906Z,100767.50
2024-01-16T19:16:53.813Z,100758.53
2024-01-16T19:19:26.747Z,100747.88
2024-01-16T19:21:54.529Z,100752.97
2024-01-16T19:24:21.401Z,100731.63
2024-01-16T19:26:48.115Z,100735.03
2024-01-16T19:29:20.199Z,100749.22
2024-01-16T19:31:46.851Z,100748.28
2024-01-16T19:34:13.716Z,100749.03
2024-01-16T19:36:48.657Z,100750.84
2024-01-16T19:39:26.109Z,100753.53
2024-01-16T19:41:55.507Z,100757.03
2024-01-16T19:44:24.521Z,100760.56
2024-01-16T19:46:55.076Z,100764.06
2024-01-16T19:49:24.918Z,100761.53
2024-01-16T19:51:51.533Z,100766.88
2024-01-16T19:54:18.124Z,100777.41
2024-01-16T19:56:44.718Z,100769.41
2024-01-16T19:59:11.502Z,100781.06
2024-01-16T20:01:38.257Z,100785.56
2024-01-16T20:04:06.597Z,100783.09
2024-01-16T20:06:33.451Z,100784.34
2024-01-16T20:09:02.894Z,100783.09
2024-01-16T20:11:31.393Z,100782.66
2024-01-16T20:14:01.042Z,100788.19
2024-01-16T20:16:33.682Z,100782.34
2024-01-16T20:19:00.446Z,100781.34
2024-01-16T20:21:27.997Z,100764.31
2024-01-16T20:23:58.022Z,100772.00
2024-01-16T20:26:28.625Z,100763.88
2024-01-16T20:28:58.318Z,100766.41
2024-01-16T20:31:27.902Z,100765.47
2024-01-16T20:33:54.717Z,100775.31
2024-01-16T20:36:23.556Z,100776.16
2024-01-16T20:38:50.234Z,100766.41
2024-01-16T20:41:17.478Z,100764.63
2024-01-16T20:43:45.129Z,100767.31
2024-01-16T20:46:12.356Z,100768.16
2024-01-16T20:48:39.434Z,100775.19
2024-01-16T20:51:07.143Z,100771.75
2024-01-16T20:53:34.030Z,100771.75
2024-01-16T20:56:10.739Z,100767.41
2024-01-16T20:58:39.546Z,100764.72
2024-01-16T21:01:08.480Z,100777.84
2024-01-16T21:03:35.431Z,100776.06
2024-01-16T21:06:04.559Z,100776.69
2024-01-16T21:08:32.589Z,100774.75
2024-01-16T21:11:00.206Z,100781.59
2024-01-16T21:13:29.100Z,100784.16
2024-01-16T21:15:56.140Z,100786.00
2024-01-16T21:18:23.481Z,100780.66
2024-01-16T21:20:50.666Z,100777.00
2024-01-16T21:23:17.360Z,100779.66
2024-01-16T21:25:43.905Z,100782.44
2024-01-16T21:28:11.035Z,100774.44
2024-01-16T21:30:37.642Z,100786.84
2024-01-16T21:33:04.566Z,100775.19
2024-01-16T21:35:31.351Z,100784.69
2024-01-16T21:37:57.972Z,100781.81
2024-01-16T21:40:24.624Z,100772.81
2024-01-16T21:42:51.361Z,100792.25
2024-01-16T21:45:17.988Z,100800.19
2024-01-16T21:47:44.949Z,100801.16
2024-01-16T21:52:39.605Z,100810.97
2024-01-16T21:55:07.471Z,100805.00
2024-01-16T21:57:34.777Z,100814.94
2024-01-16T22:00:04.043Z,100798.16
2024-01-16T22:02:30.767Z,100799.94
2024-01-16T22:04:57.592Z,100796.44
2024-01-16T22:07:24.373Z,100799.09
2024-01-16T22:09:50.926Z,100800.84
2024-01-16T22:12:17.479Z,100799.09
2024-01-16T22:14:44.368Z,100788.44
2024-01-16T22:17:10.961Z,100793.78
2024-01-16T22:19:37.619Z,100792.06
2024-01-16T22:22:04.442Z,100785.84
2024-01-16T22:24:31.048Z,100777.75
2024-01-16T22:26:57.714Z,100772.41
2024-01-16T22:29:24.310Z,100781.41
2024-01-16T22:31:50.877Z,100788.66
2024-01-16T22:34:19.291Z,100790.56
2024-01-16T22:36:46.006Z,100790.78
2024-01-16T22:39:16.782Z,100781.28
2024-01-16T22:41:47.936Z,100787.59
2024-01-16T22:44:15.307Z,100778.59
2024-01-16T22:46:42.087Z,100787.25
2024-01-16T22:49:09.223Z,100789.09
2024-01-16T22:51:41.177Z,100790.78
2024-01-16T22:54:08.187Z,100799.53
2024-01-16T22:56:35.199Z,100799.44
2024-01-16T22:59:04.271Z,100794.84
2024-01-16T23:01:32.084Z,100782.44
2024-01-16T23:03:59.213Z,100786.00
2024-01-16T23:06:29.769Z,100783.31
2024-01-16T23:08:56.970Z,100778.81
2024-01-16T23:11:24.907Z,100769.97
2024-01-16T23:13:52.429Z,100760.97
2024-01-16T23:16:19.447Z,100753.81
2024-01-16T23:18:47.481Z,100736.94
2024-01-16T23:21:15.372Z,100724.44
2024-01-16T23:23:45.962Z,100722.00
2024-01-16T23:26:13.399Z,100718.59
2024-01-16T23:28:41.126Z,100720.41
2024-01-16T23:31:08.851Z,100719.44
2024-01-16T23:33:35.965Z,100718.50
2024-01-16T23:36:03.133Z,100716.66
2024-01-16T23:38:29.986Z,100719.34
2024-01-16T23:40:59.591Z,100718.38
2024-01-16T23:43:29.010Z,100721.78
2024-01-16T23:45:55.643Z,100734.94
2024-01-16T23:48:22.499Z,100723.06
2024-01-16T23:50:49.509Z,100714.97
2024-01-16T23:53:16.646Z,100721.03
2024-01-16T23:55:43.317Z,100723.72
2024-01-16T23:58:10.315Z,100724.56
